sensor_id;sensor_type;location;lat;lon;timestamp;temperature;humidity
68139;DHT22;54940;50.842;4.410;2023-05-13T00:02:12;15.10;99.90
68139;DHT22;54940;50.842;4.410;2023-05-13T00:04:38;15.10;99.90
68139;DHT22;54940;50.842;4.410;2023-05-13T00:07:04;15.10;99.90
68139;DHT22;54940;50.842;4.410;2023-05-13T00:09:30;15.10;99.90
68139;DHT22;54940;50.842;4.410;2023-05-13T00:11:55;15.00;99.90
68139;DHT22;54940;50.842;4.410;2023-05-13T00:14:21;15.00;99.90
68139;DHT22;54940;50.842;4.410;2023-05-13T00:16:47;15.00;99.90
68139;DHT22;54940;50.842;4.410;2023-05-13T00:19:12;14.90;99.90
68139;DHT22;54940;50.842;4.410;2023-05-13T00:21:41;14.90;99.90
68139;DHT22;54940;50.842;4.410;2023-05-13T00:24:08;14.90;99.90
68139;DHT22;54940;50.842;4.410;2023-05-13T00:26:34;14.90;99.90
68139;DHT22;54940;50.842;4.410;2023-05-13T00:29:00;14.90;99.90
68139;DHT22;54940;50.842;4.410;2023-05-13T00:31:28;14.90;99.90
68139;DHT22;54940;50.842;4.410;2023-05-13T00:33:56;14.90;99.90
68139;DHT22;54940;50.842;4.410;2023-05-13T00:36:21;14.90;99.90
68139;DHT22;54940;50.842;4.410;2023-05-13T00:38:51;14.90;99.90
68139;DHT22;54940;50.842;4.410;2023-05-13T00:41:17;14.90;99.90
68139;DHT22;54940;50.842;4.410;2023-05-13T00:43:43;14.90;99.90
68139;DHT22;54940;50.842;4.410;2023-05-13T00:46:09;14.90;99.90
68139;DHT22;54940;50.842;4.410;2023-05-13T00:48:35;14.80;99.90
68139;DHT22;54940;50.842;4.410;2023-05-13T00:51:00;14.80;99.90
68139;DHT22;54940;50.842;4.410;2023-05-13T00:53:26;14.80;99.90
68139;DHT22;54940;50.842;4.410;2023-05-13T00:55:52;14.80;99.90
68139;DHT22;54940;50.842;4.410;2023-05-13T00:58:17;14.80;99.90
68139;DHT22;54940;50.842;4.410;2023-05-13T01:03:38;14.80;99.90
68139;DHT22;54940;50.842;4.410;2023-05-13T01:06:23;14.70;99.90
68139;DHT22;54940;50.842;4.410;2023-05-13T01:09:07;14.70;99.90
68139;DHT22;54940;50.842;4.410;2023-05-13T01:11:37;14.60;99.90
68139;DHT22;54940;50.842;4.410;2023-05-13T01:14:11;14.70;99.90
68139;DHT22;54940;50.842;4.410;2023-05-13T01:16:43;14.70;99.90
68139;DHT22;54940;50.842;4.410;2023-05-13T01:19:47;14.80;99.90
68139;DHT22;54940;50.842;4.410;2023-05-13T01:22:13;14.70;99.90
68139;DHT22;54940;50.842;4.410;2023-05-13T01:24:39;14.60;99.90
68139;DHT22;54940;50.842;4.410;2023-05-13T01:27:05;14.60;99.90
68139;DHT22;54940;50.842;4.410;2023-05-13T01:29:31;14.70;99.90
68139;DHT22;54940;50.842;4.410;2023-05-13T01:31:59;14.70;99.90
68139;DHT22;54940;50.842;4.410;2023-05-13T01:34:27;14.70;99.90
68139;DHT22;54940;50.842;4.410;2023-05-13T01:36:54;14.60;99.90
68139;DHT22;54940;50.842;4.410;2023-05-13T01:39:21;14.60;99.90
68139;DHT22;54940;50.842;4.410;2023-05-13T01:41:48;14.60;99.90
68139;DHT22;54940;50.842;4.410;2023-05-13T01:44:13;14.60;99.90
68139;DHT22;54940;50.842;4.410;2023-05-13T01:46:42;14.60;99.90
68139;DHT22;54940;50.842;4.410;2023-05-13T01:49:12;14.60;99.90
68139;DHT22;54940;50.842;4.410;2023-05-13T01:51:38;14.50;99.90
68139;DHT22;54940;50.842;4.410;2023-05-13T01:54:05;14.60;99.90
68139;DHT22;54940;50.842;4.410;2023-05-13T01:56:31;14.60;99.90
68139;DHT22;54940;50.842;4.410;2023-05-13T01:58:57;14.60;99.90
68139;DHT22;54940;50.842;4.410;2023-05-13T02:01:25;14.60;99.90
68139;DHT22;54940;50.842;4.410;2023-05-13T02:03:51;14.50;99.90
68139;DHT22;54940;50.842;4.410;2023-05-13T02:06:18;14.60;99.90
68139;DHT22;54940;50.842;4.410;2023-05-13T02:08:44;14.60;99.90
68139;DHT22;54940;50.842;4.410;2023-05-13T02:11:09;14.60;99.90
68139;DHT22;54940;50.842;4.410;2023-05-13T02:13:37;14.60;99.90
68139;DHT22;54940;50.842;4.410;2023-05-13T02:16:03;14.70;99.90
68139;DHT22;54940;50.842;4.410;2023-05-13T02:18:31;14.60;99.90
68139;DHT22;54940;50.842;4.410;2023-05-13T02:20:56;14.60;99.90
68139;DHT22;54940;50.842;4.410;2023-05-13T02:23:22;14.60;99.90
68139;DHT22;54940;50.842;4.410;2023-05-13T02:25:48;14.50;99.90
68139;DHT22;54940;50.842;4.410;2023-05-13T02:28:13;14.50;99.90
68139;DHT22;54940;50.842;4.410;2023-05-13T02:30:39;14.50;99.90
68139;DHT22;54940;50.842;4.410;2023-05-13T02:33:05;14.50;99.90
68139;DHT22;54940;50.842;4.410;2023-05-13T02:35:33;14.50;99.90
68139;DHT22;54940;50.842;4.410;2023-05-13T02:37:59;14.50;99.90
68139;DHT22;54940;50.842;4.410;2023-05-13T02:40:24;14.50;99.90
68139;DHT22;54940;50.842;4.410;2023-05-13T02:42:50;14.50;99.90
68139;DHT22;54940;50.842;4.410;2023-05-13T02:45:16;14.50;99.90
68139;DHT22;54940;50.842;4.410;2023-05-13T02:47:43;14.50;99.90
68139;DHT22;54940;50.842;4.410;2023-05-13T02:50:09;14.50;99.90
68139;DHT22;54940;50.842;4.410;2023-05-13T02:52:36;14.50;99.90
68139;DHT22;54940;50.842;4.410;2023-05-13T02:55:08;14.50;99.90
68139;DHT22;54940;50.842;4.410;2023-05-13T02:57:34;14.50;99.90
68139;DHT22;54940;50.842;4.410;2023-05-13T03:00:00;14.50;99.90
68139;DHT22;54940;50.842;4.410;2023-05-13T03:02:26;14.50;99.90
68139;DHT22;54940;50.842;4.410;2023-05-13T03:04:52;14.50;99.90
68139;DHT22;54940;50.842;4.410;2023-05-13T03:07:19;14.40;99.90
68139;DHT22;54940;50.842;4.410;2023-05-13T03:09:45;14.50;99.90
68139;DHT22;54940;50.842;4.410;2023-05-13T03:12:10;14.50;99.90
68139;DHT22;54940;50.842;4.410;2023-05-13T03:14:36;14.40;99.90
68139;DHT22;54940;50.842;4.410;2023-05-13T03:17:02;14.40;99.90
68139;DHT22;54940;50.842;4.410;2023-05-13T03:19:28;14.40;99.90
68139;DHT22;54940;50.842;4.410;2023-05-13T03:21:54;14.40;99.90
68139;DHT22;54940;50.842;4.410;2023-05-13T03:24:20;14.40;99.90
68139;DHT22;54940;50.842;4.410;2023-05-13T03:26:45;14.40;99.90
68139;DHT22;54940;50.842;4.410;2023-05-13T03:29:11;14.50;99.90
68139;DHT22;54940;50.842;4.410;2023-05-13T03:31:37;14.40;99.90
68139;DHT22;54940;50.842;4.410;2023-05-13T03:34:03;14.40;99.90
68139;DHT22;54940;50.842;4.410;2023-05-13T03:36:28;14.40;99.90
68139;DHT22;54940;50.842;4.410;2023-05-13T03:38:54;14.40;99.90
68139;DHT22;54940;50.842;4.410;2023-05-13T03:41:20;14.30;99.90
68139;DHT22;54940;50.842;4.410;2023-05-13T03:43:46;14.30;99.90
68139;DHT22;54940;50.842;4.410;2023-05-13T03:46:11;14.30;99.90
68139;DHT22;54940;50.842;4.410;2023-05-13T03:48:39;14.30;99.90
68139;DHT22;54940;50.842;4.410;2023-05-13T03:51:05;14.30;99.90
68139;DHT22;54940;50.842;4.410;2023-05-13T03:53:31;14.30;99.90
68139;DHT22;54940;50.842;4.410;2023-05-13T03:55:56;14.20;99.90
68139;DHT22;54940;50.842;4.410;2023-05-13T03:58:24;14.30;99.90
68139;DHT22;54940;50.842;4.410;2023-05-13T04:00:50;14.20;99.90
68139;DHT22;54940;50.842;4.410;2023-05-13T04:03:16;14.30;99.90
68139;DHT22;54940;50.842;4.410;2023-05-13T04:05:42;14.30;99.90
68139;DHT22;54940;50.842;4.410;2023-05-13T04:08:08;14.20;99.90
68139;DHT22;54940;50.842;4.410;2023-05-13T04:10:35;14.30;99.90
68139;DHT22;54940;50.842;4.410;2023-05-13T04:13:01;14.20;99.90
68139;DHT22;54940;50.842;4.410;2023-05-13T04:15:27;14.20;99.90
68139;DHT22;54940;50.842;4.410;2023-05-13T04:17:52;14.30;99.90
68139;DHT22;54940;50.842;4.410;2023-05-13T04:20:18;14.30;99.90
68139;DHT22;54940;50.842;4.410;2023-05-13T04:22:47;14.30;99.90
68139;DHT22;54940;50.842;4.410;2023-05-13T04:25:13;14.30;99.90
68139;DHT22;54940;50.842;4.410;2023-05-13T04:27:38;14.40;99.90
68139;DHT22;54940;50.842;4.410;2023-05-13T04:30:04;14.40;99.90
68139;DHT22;54940;50.842;4.410;2023-05-13T04:32:33;14.40;99.90
68139;DHT22;54940;50.842;4.410;2023-05-13T04:34:58;14.50;99.90
68139;DHT22;54940;50.842;4.410;2023-05-13T04:37:24;14.50;99.90
68139;DHT22;54940;50.842;4.410;2023-05-13T04:39:52;14.40;99.90
68139;DHT22;54940;50.842;4.410;2023-05-13T04:42:18;14.50;99.90
68139;DHT22;54940;50.842;4.410;2023-05-13T04:44:43;14.50;99.90
68139;DHT22;54940;50.842;4.410;2023-05-13T04:47:10;14.50;99.90
68139;DHT22;54940;50.842;4.410;2023-05-13T04:49:35;14.60;99.90
68139;DHT22;54940;50.842;4.410;2023-05-13T04:52:02;14.70;99.90
68139;DHT22;54940;50.842;4.410;2023-05-13T04:54:28;15.10;99.90
68139;DHT22;54940;50.842;4.410;2023-05-13T04:56:54;15.80;99.90
68139;DHT22;54940;50.842;4.410;2023-05-13T04:59:20;16.40;99.90
68139;DHT22;54940;50.842;4.410;2023-05-13T05:01:45;17.00;99.90
68139;DHT22;54940;50.842;4.410;2023-05-13T05:04:11;17.80;99.90
68139;DHT22;54940;50.842;4.410;2023-05-13T05:06:37;18.30;99.90
68139;DHT22;54940;50.842;4.410;2023-05-13T05:09:05;18.70;99.90
68139;DHT22;54940;50.842;4.410;2023-05-13T05:11:31;18.90;99.90
68139;DHT22;54940;50.842;4.410;2023-05-13T05:13:57;18.60;99.90
68139;DHT22;54940;50.842;4.410;2023-05-13T05:16:22;18.20;99.90
68139;DHT22;54940;50.842;4.410;2023-05-13T05:18:48;17.90;99.90
68139;DHT22;54940;50.842;4.410;2023-05-13T05:21:14;17.60;99.90
68139;DHT22;54940;50.842;4.410;2023-05-13T05:23:39;17.30;99.90
68139;DHT22;54940;50.842;4.410;2023-05-13T05:26:05;16.80;99.90
68139;DHT22;54940;50.842;4.410;2023-05-13T05:28:31;16.70;99.90
68139;DHT22;54940;50.842;4.410;2023-05-13T05:30:59;16.60;99.90
68139;DHT22;54940;50.842;4.410;2023-05-13T05:33:27;16.60;99.90
68139;DHT22;54940;50.842;4.410;2023-05-13T05:35:53;16.50;99.90
68139;DHT22;54940;50.842;4.410;2023-05-13T05:38:18;16.40;99.90
68139;DHT22;54940;50.842;4.410;2023-05-13T05:40:49;16.30;99.90
68139;DHT22;54940;50.842;4.410;2023-05-13T05:43:15;16.20;99.90
68139;DHT22;54940;50.842;4.410;2023-05-13T05:45:41;16.00;99.90
68139;DHT22;54940;50.842;4.410;2023-05-13T05:48:06;16.00;99.90
68139;DHT22;54940;50.842;4.410;2023-05-13T05:50:33;16.00;99.90
68139;DHT22;54940;50.842;4.410;2023-05-13T05:52:59;16.10;99.90
68139;DHT22;54940;50.842;4.410;2023-05-13T05:55:26;16.60;99.90
68139;DHT22;54940;50.842;4.410;2023-05-13T05:57:56;17.40;99.90
68139;DHT22;54940;50.842;4.410;2023-05-13T06:00:23;18.30;99.90
68139;DHT22;54940;50.842;4.410;2023-05-13T06:02:49;19.30;99.90
68139;DHT22;54940;50.842;4.410;2023-05-13T06:05:15;19.90;99.90
68139;DHT22;54940;50.842;4.410;2023-05-13T06:07:40;19.70;99.90
68139;DHT22;54940;50.842;4.410;2023-05-13T06:10:06;19.40;99.90
68139;DHT22;54940;50.842;4.410;2023-05-13T06:12:32;18.80;99.90
68139;DHT22;54940;50.842;4.410;2023-05-13T06:14:58;18.30;99.90
68139;DHT22;54940;50.842;4.410;2023-05-13T06:17:24;17.90;99.90
68139;DHT22;54940;50.842;4.410;2023-05-13T06:19:50;17.50;99.90
68139;DHT22;54940;50.842;4.410;2023-05-13T06:22:16;17.20;99.90
68139;DHT22;54940;50.842;4.410;2023-05-13T06:24:42;17.10;99.90
68139;DHT22;54940;50.842;4.410;2023-05-13T06:27:10;17.10;99.90
68139;DHT22;54940;50.842;4.410;2023-05-13T06:29:36;17.40;99.90
68139;DHT22;54940;50.842;4.410;2023-05-13T06:32:03;17.30;99.90
68139;DHT22;54940;50.842;4.410;2023-05-13T06:34:28;17.60;99.90
68139;DHT22;54940;50.842;4.410;2023-05-13T06:36:54;17.60;99.90
68139;DHT22;54940;50.842;4.410;2023-05-13T06:39:20;17.90;99.90
68139;DHT22;54940;50.842;4.410;2023-05-13T06:41:45;18.30;99.90
68139;DHT22;54940;50.842;4.410;2023-05-13T06:44:11;18.90;99.90
68139;DHT22;54940;50.842;4.410;2023-05-13T06:46:37;19.40;99.90
68139;DHT22;54940;50.842;4.410;2023-05-13T06:49:02;19.70;99.90
68139;DHT22;54940;50.842;4.410;2023-05-13T06:51:28;20.30;99.90
68139;DHT22;54940;50.842;4.410;2023-05-13T06:53:55;20.80;99.90
68139;DHT22;54940;50.842;4.410;2023-05-13T06:56:21;21.10;99.90
68139;DHT22;54940;50.842;4.410;2023-05-13T06:58:53;21.40;99.90
68139;DHT22;54940;50.842;4.410;2023-05-13T07:01:19;21.60;99.90
68139;DHT22;54940;50.842;4.410;2023-05-13T07:03:47;21.90;99.90
68139;DHT22;54940;50.842;4.410;2023-05-13T07:06:13;22.10;99.90
68139;DHT22;54940;50.842;4.410;2023-05-13T07:08:38;21.80;99.90
68139;DHT22;54940;50.842;4.410;2023-05-13T07:11:05;22.20;99.90
68139;DHT22;54940;50.842;4.410;2023-05-13T07:13:31;22.50;99.90
68139;DHT22;54940;50.842;4.410;2023-05-13T07:16:02;22.70;99.90
68139;DHT22;54940;50.842;4.410;2023-05-13T07:18:28;23.00;99.90
68139;DHT22;54940;50.842;4.410;2023-05-13T07:20:54;23.30;99.90
68139;DHT22;54940;50.842;4.410;2023-05-13T07:23:23;22.90;99.90
68139;DHT22;54940;50.842;4.410;2023-05-13T07:25:49;23.10;99.90
68139;DHT22;54940;50.842;4.410;2023-05-13T07:28:17;23.10;99.90
68139;DHT22;54940;50.842;4.410;2023-05-13T07:30:44;23.00;99.90
68139;DHT22;54940;50.842;4.410;2023-05-13T07:33:09;23.10;99.90
68139;DHT22;54940;50.842;4.410;2023-05-13T07:35:35;22.90;99.90
68139;DHT22;54940;50.842;4.410;2023-05-13T07:38:03;23.00;99.90
68139;DHT22;54940;50.842;4.410;2023-05-13T07:40:29;23.10;99.90
68139;DHT22;54940;50.842;4.410;2023-05-13T07:42:55;23.20;99.90
68139;DHT22;54940;50.842;4.410;2023-05-13T07:45:23;23.10;99.90
68139;DHT22;54940;50.842;4.410;2023-05-13T07:47:48;23.30;99.90
68139;DHT22;54940;50.842;4.410;2023-05-13T07:50:14;23.20;99.90
68139;DHT22;54940;50.842;4.410;2023-05-13T07:52:43;23.20;99.90
68139;DHT22;54940;50.842;4.410;2023-05-13T07:55:09;23.40;99.90
68139;DHT22;54940;50.842;4.410;2023-05-13T07:57:35;23.50;99.90
68139;DHT22;54940;50.842;4.410;2023-05-13T08:00:01;23.70;99.90
68139;DHT22;54940;50.842;4.410;2023-05-13T08:02:27;23.80;99.90
68139;DHT22;54940;50.842;4.410;2023-05-13T08:04:59;24.30;99.90
68139;DHT22;54940;50.842;4.410;2023-05-13T08:07:24;24.20;99.90
68139;DHT22;54940;50.842;4.410;2023-05-13T08:09:50;24.20;99.90
68139;DHT22;54940;50.842;4.410;2023-05-13T08:12:17;24.60;99.90
68139;DHT22;54940;50.842;4.410;2023-05-13T08:14:43;24.40;99.90
68139;DHT22;54940;50.842;4.410;2023-05-13T08:17:09;24.00;99.90
68139;DHT22;54940;50.842;4.410;2023-05-13T08:19:37;24.00;99.90
68139;DHT22;54940;50.842;4.410;2023-05-13T08:22:03;23.90;99.90
68139;DHT22;54940;50.842;4.410;2023-05-13T08:24:29;23.80;99.90
68139;DHT22;54940;50.842;4.410;2023-05-13T08:26:55;24.00;99.90
68139;DHT22;54940;50.842;4.410;2023-05-13T08:29:20;24.30;99.90
68139;DHT22;54940;50.842;4.410;2023-05-13T08:31:46;24.10;99.90
68139;DHT22;54940;50.842;4.410;2023-05-13T08:34:12;24.30;99.90
68139;DHT22;54940;50.842;4.410;2023-05-13T08:36:40;24.40;99.90
68139;DHT22;54940;50.842;4.410;2023-05-13T08:39:05;24.30;99.90
68139;DHT22;54940;50.842;4.410;2023-05-13T08:41:33;24.50;99.90
68139;DHT22;54940;50.842;4.410;2023-05-13T08:44:03;24.50;99.90
68139;DHT22;54940;50.842;4.410;2023-05-13T08:46:32;24.40;99.90
68139;DHT22;54940;50.842;4.410;2023-05-13T08:49:00;24.30;99.90
68139;DHT22;54940;50.842;4.410;2023-05-13T08:51:29;24.30;99.90
68139;DHT22;54940;50.842;4.410;2023-05-13T08:53:59;24.00;99.90
68139;DHT22;54940;50.842;4.410;2023-05-13T08:56:26;23.90;99.90
68139;DHT22;54940;50.842;4.410;2023-05-13T08:58:55;24.00;99.90
68139;DHT22;54940;50.842;4.410;2023-05-13T09:01:24;24.10;99.90
68139;DHT22;54940;50.842;4.410;2023-05-13T09:03:58;24.20;99.90
68139;DHT22;54940;50.842;4.410;2023-05-13T09:06:25;24.30;99.90
68139;DHT22;54940;50.842;4.410;2023-05-13T09:08:54;24.40;99.90
68139;DHT22;54940;50.842;4.410;2023-05-13T09:11:20;24.50;99.90
68139;DHT22;54940;50.842;4.410;2023-05-13T09:13:56;24.20;99.90
68139;DHT22;54940;50.842;4.410;2023-05-13T09:16:22;24.20;99.90
68139;DHT22;54940;50.842;4.410;2023-05-13T09:18:48;24.00;99.90
68139;DHT22;54940;50.842;4.410;2023-05-13T09:21:29;24.20;99.90
68139;DHT22;54940;50.842;4.410;2023-05-13T09:24:08;24.30;99.90
68139;DHT22;54940;50.842;4.410;2023-05-13T09:26:38;24.40;99.90
68139;DHT22;54940;50.842;4.410;2023-05-13T09:29:15;24.40;99.90
68139;DHT22;54940;50.842;4.410;2023-05-13T09:31:45;24.10;99.90
68139;DHT22;54940;50.842;4.410;2023-05-13T09:34:11;24.20;99.90
68139;DHT22;54940;50.842;4.410;2023-05-13T09:36:37;23.90;99.90
68139;DHT22;54940;50.842;4.410;2023-05-13T09:39:04;23.70;99.90
68139;DHT22;54940;50.842;4.410;2023-05-13T09:41:30;23.50;99.90
68139;DHT22;54940;50.842;4.410;2023-05-13T09:44:01;23.70;99.90
68139;DHT22;54940;50.842;4.410;2023-05-13T09:46:27;23.80;99.90
68139;DHT22;54940;50.842;4.410;2023-05-13T09:48:55;23.90;99.90
68139;DHT22;54940;50.842;4.410;2023-05-13T09:51:27;24.10;99.90
68139;DHT22;54940;50.842;4.410;2023-05-13T09:53:55;24.00;99.90
68139;DHT22;54940;50.842;4.410;2023-05-13T09:56:28;24.10;99.90
68139;DHT22;54940;50.842;4.410;2023-05-13T09:58:56;24.40;99.90
68139;DHT22;54940;50.842;4.410;2023-05-13T10:01:23;24.50;99.90
68139;DHT22;54940;50.842;4.410;2023-05-13T10:03:50;24.40;99.90
68139;DHT22;54940;50.842;4.410;2023-05-13T10:06:21;24.60;99.90
68139;DHT22;54940;50.842;4.410;2023-05-13T10:08:49;24.50;99.90
68139;DHT22;54940;50.842;4.410;2023-05-13T10:11:17;24.70;99.90
68139;DHT22;54940;50.842;4.410;2023-05-13T10:13:48;24.80;99.90
68139;DHT22;54940;50.842;4.410;2023-05-13T10:16:15;24.80;99.90
68139;DHT22;54940;50.842;4.410;2023-05-13T10:18:44;24.80;99.90
68139;DHT22;54940;50.842;4.410;2023-05-13T10:21:11;25.00;99.90
68139;DHT22;54940;50.842;4.410;2023-05-13T10:23:37;25.00;99.90
68139;DHT22;54940;50.842;4.410;2023-05-13T10:26:03;25.20;99.90
68139;DHT22;54940;50.842;4.410;2023-05-13T10:28:31;25.30;99.90
68139;DHT22;54940;50.842;4.410;2023-05-13T10:30:58;25.40;99.90
68139;DHT22;54940;50.842;4.410;2023-05-13T10:33:23;25.40;99.90
68139;DHT22;54940;50.842;4.410;2023-05-13T10:36:15;25.50;99.90
68139;DHT22;54940;50.842;4.410;2023-05-13T10:45:00;25.40;99.90
68139;DHT22;54940;50.842;4.410;2023-05-13T10:47:26;25.50;99.90
68139;DHT22;54940;50.842;4.410;2023-05-13T10:49:53;25.40;99.90
68139;DHT22;54940;50.842;4.410;2023-05-13T10:52:19;25.50;99.90
68139;DHT22;54940;50.842;4.410;2023-05-13T10:55:00;25.40;99.90
68139;DHT22;54940;50.842;4.410;2023-05-13T10:57:36;25.40;99.90
68139;DHT22;54940;50.842;4.410;2023-05-13T11:00:15;25.40;99.90
68139;DHT22;54940;50.842;4.410;2023-05-13T11:02:42;25.50;99.90
68139;DHT22;54940;50.842;4.410;2023-05-13T11:05:18;25.60;99.90
68139;DHT22;54940;50.842;4.410;2023-05-13T11:07:56;25.60;99.90
68139;DHT22;54940;50.842;4.410;2023-05-13T11:10:26;25.70;99.90
68139;DHT22;54940;50.842;4.410;2023-05-13T11:13:20;25.70;99.90
68139;DHT22;54940;50.842;4.410;2023-05-13T11:15:53;25.80;99.90
68139;DHT22;54940;50.842;4.410;2023-05-13T11:18:29;26.00;99.90
68139;DHT22;54940;50.842;4.410;2023-05-13T11:21:01;26.10;99.90
68139;DHT22;54940;50.842;4.410;2023-05-13T11:26:16;26.30;99.90
68139;DHT22;54940;50.842;4.410;2023-05-13T11:28:56;26.40;99.90
68139;DHT22;54940;50.842;4.410;2023-05-13T11:31:22;26.30;99.90
68139;DHT22;54940;50.842;4.410;2023-05-13T11:34:08;26.40;99.90
68139;DHT22;54940;50.842;4.410;2023-05-13T11:36:36;26.40;99.90
68139;DHT22;54940;50.842;4.410;2023-05-13T11:39:28;26.40;99.90
68139;DHT22;54940;50.842;4.410;2023-05-13T11:41:54;26.20;99.90
68139;DHT22;54940;50.842;4.410;2023-05-13T11:44:23;26.00;99.90
68139;DHT22;54940;50.842;4.410;2023-05-13T11:49:38;26.40;99.90
68139;DHT22;54940;50.842;4.410;2023-05-13T11:52:17;26.30;99.90
68139;DHT22;54940;50.842;4.410;2023-05-13T11:54:52;26.30;99.90
68139;DHT22;54940;50.842;4.410;2023-05-13T11:59:49;25.80;99.90
68139;DHT22;54940;50.842;4.410;2023-05-13T12:02:15;25.80;99.90
68139;DHT22;54940;50.842;4.410;2023-05-13T12:04:45;26.00;99.90
68139;DHT22;54940;50.842;4.410;2023-05-13T12:07:11;26.20;99.90
68139;DHT22;54940;50.842;4.410;2023-05-13T12:09:37;25.80;99.90
68139;DHT22;54940;50.842;4.410;2023-05-13T12:12:03;25.50;99.90
68139;DHT22;54940;50.842;4.410;2023-05-13T12:14:28;25.20;99.90
68139;DHT22;54940;50.842;4.410;2023-05-13T12:16:57;25.00;99.90
68139;DHT22;54940;50.842;4.410;2023-05-13T12:19:23;24.80;99.90
68139;DHT22;54940;50.842;4.410;2023-05-13T12:21:49;24.60;99.90
68139;DHT22;54940;50.842;4.410;2023-05-13T12:24:20;24.80;99.90
68139;DHT22;54940;50.842;4.410;2023-05-13T12:26:46;25.00;99.90
68139;DHT22;54940;50.842;4.410;2023-05-13T12:29:12;25.30;99.90
68139;DHT22;54940;50.842;4.410;2023-05-13T12:31:41;25.20;99.90
68139;DHT22;54940;50.842;4.410;2023-05-13T12:34:07;25.20;99.90
68139;DHT22;54940;50.842;4.410;2023-05-13T12:36:38;25.00;99.90
68139;DHT22;54940;50.842;4.410;2023-05-13T12:39:08;24.80;99.90
68139;DHT22;54940;50.842;4.410;2023-05-13T12:41:39;24.50;99.90
68139;DHT22;54940;50.842;4.410;2023-05-13T12:44:14;24.40;99.90
68139;DHT22;54940;50.842;4.410;2023-05-13T12:46:54;24.50;99.90
68139;DHT22;54940;50.842;4.410;2023-05-13T12:49:22;24.80;99.90
68139;DHT22;54940;50.842;4.410;2023-05-13T12:51:47;24.90;99.90
68139;DHT22;54940;50.842;4.410;2023-05-13T12:54:14;24.90;99.90
68139;DHT22;54940;50.842;4.410;2023-05-13T12:56:39;24.90;99.90
68139;DHT22;54940;50.842;4.410;2023-05-13T12:59:06;24.90;99.90
68139;DHT22;54940;50.842;4.410;2023-05-13T13:01:35;25.00;99.90
68139;DHT22;54940;50.842;4.410;2023-05-13T13:04:00;25.30;99.90
68139;DHT22;54940;50.842;4.410;2023-05-13T13:06:26;25.20;99.90
68139;DHT22;54940;50.842;4.410;2023-05-13T13:08:51;25.00;99.90
68139;DHT22;54940;50.842;4.410;2023-05-13T13:11:17;24.50;99.90
68139;DHT22;54940;50.842;4.410;2023-05-13T13:13:46;24.40;99.90
68139;DHT22;54940;50.842;4.410;2023-05-13T13:16:13;24.40;99.90
68139;DHT22;54940;50.842;4.410;2023-05-13T13:18:39;24.60;99.90
68139;DHT22;54940;50.842;4.410;2023-05-13T13:21:07;24.80;99.90
68139;DHT22;54940;50.842;4.410;2023-05-13T13:23:33;25.00;99.90
68139;DHT22;54940;50.842;4.410;2023-05-13T13:25:58;25.10;99.90
68139;DHT22;54940;50.842;4.410;2023-05-13T13:28:25;25.10;99.90
68139;DHT22;54940;50.842;4.410;2023-05-13T13:30:53;25.10;99.90
68139;DHT22;54940;50.842;4.410;2023-05-13T13:33:21;25.20;99.90
68139;DHT22;54940;50.842;4.410;2023-05-13T13:35:48;25.10;99.90
68139;DHT22;54940;50.842;4.410;2023-05-13T13:38:14;25.20;99.90
68139;DHT22;54940;50.842;4.410;2023-05-13T13:40:39;25.30;99.30
68139;DHT22;54940;50.842;4.410;2023-05-13T13:43:06;25.30;99.90
68139;DHT22;54940;50.842;4.410;2023-05-13T13:45:32;25.30;99.90
68139;DHT22;54940;50.842;4.410;2023-05-13T13:47:58;25.20;99.90
68139;DHT22;54940;50.842;4.410;2023-05-13T13:50:24;25.30;99.90
68139;DHT22;54940;50.842;4.410;2023-05-13T13:52:52;25.60;99.90
68139;DHT22;54940;50.842;4.410;2023-05-13T13:55:21;25.50;99.90
68139;DHT22;54940;50.842;4.410;2023-05-13T13:57:47;25.40;98.40
68139;DHT22;54940;50.842;4.410;2023-05-13T14:00:14;25.30;99.90
68139;DHT22;54940;50.842;4.410;2023-05-13T14:02:41;25.30;99.90
68139;DHT22;54940;50.842;4.410;2023-05-13T14:05:07;25.50;98.70
68139;DHT22;54940;50.842;4.410;2023-05-13T14:07:33;25.40;96.50
68139;DHT22;54940;50.842;4.410;2023-05-13T14:09:58;25.40;99.90
68139;DHT22;54940;50.842;4.410;2023-05-13T14:12:24;25.40;97.30
68139;DHT22;54940;50.842;4.410;2023-05-13T14:14:50;25.40;99.30
68139;DHT22;54940;50.842;4.410;2023-05-13T14:17:15;25.40;99.70
68139;DHT22;54940;50.842;4.410;2023-05-13T14:19:43;25.40;97.10
68139;DHT22;54940;50.842;4.410;2023-05-13T14:22:11;25.30;96.00
68139;DHT22;54940;50.842;4.410;2023-05-13T14:24:37;25.30;96.80
68139;DHT22;54940;50.842;4.410;2023-05-13T14:27:02;25.30;97.50
68139;DHT22;54940;50.842;4.410;2023-05-13T14:29:28;25.20;96.90
68139;DHT22;54940;50.842;4.410;2023-05-13T14:31:54;25.30;97.60
68139;DHT22;54940;50.842;4.410;2023-05-13T14:34:20;25.40;96.40
68139;DHT22;54940;50.842;4.410;2023-05-13T14:36:47;25.20;98.70
68139;DHT22;54940;50.842;4.410;2023-05-13T14:39:13;24.80;97.00
68139;DHT22;54940;50.842;4.410;2023-05-13T14:41:38;24.40;96.30
68139;DHT22;54940;50.842;4.410;2023-05-13T14:44:05;24.40;96.20
68139;DHT22;54940;50.842;4.410;2023-05-13T14:46:31;24.50;97.90
68139;DHT22;54940;50.842;4.410;2023-05-13T14:48:58;24.50;96.70
68139;DHT22;54940;50.842;4.410;2023-05-13T14:51:24;24.60;96.70
68139;DHT22;54940;50.842;4.410;2023-05-13T14:53:50;24.70;98.10
68139;DHT22;54940;50.842;4.410;2023-05-13T14:56:15;24.80;96.70
68139;DHT22;54940;50.842;4.410;2023-05-13T14:58:41;24.60;94.80
68139;DHT22;54940;50.842;4.410;2023-05-13T15:01:09;24.40;93.40
68139;DHT22;54940;50.842;4.410;2023-05-13T15:03:35;24.20;95.00
68139;DHT22;54940;50.842;4.410;2023-05-13T15:06:00;24.10;94.70
68139;DHT22;54940;50.842;4.410;2023-05-13T15:08:26;24.10;96.70
68139;DHT22;54940;50.842;4.410;2023-05-13T15:10:52;24.20;95.20
68139;DHT22;54940;50.842;4.410;2023-05-13T15:13:17;24.30;95.20
68139;DHT22;54940;50.842;4.410;2023-05-13T15:15:43;24.30;99.90
68139;DHT22;54940;50.842;4.410;2023-05-13T15:18:12;24.20;99.90
68139;DHT22;54940;50.842;4.410;2023-05-13T15:20:40;24.20;99.90
68139;DHT22;54940;50.842;4.410;2023-05-13T15:23:06;24.00;99.90
68139;DHT22;54940;50.842;4.410;2023-05-13T15:25:32;23.80;99.90
68139;DHT22;54940;50.842;4.410;2023-05-13T15:27:57;23.50;99.90
68139;DHT22;54940;50.842;4.410;2023-05-13T15:30:23;23.20;99.90
68139;DHT22;54940;50.842;4.410;2023-05-13T15:32:53;23.10;99.90
68139;DHT22;54940;50.842;4.410;2023-05-13T15:35:19;22.90;99.90
68139;DHT22;54940;50.842;4.410;2023-05-13T15:37:44;22.90;99.90
68139;DHT22;54940;50.842;4.410;2023-05-13T15:40:11;22.80;99.90
68139;DHT22;54940;50.842;4.410;2023-05-13T15:42:36;22.70;99.90
68139;DHT22;54940;50.842;4.410;2023-05-13T15:45:02;22.90;99.90
68139;DHT22;54940;50.842;4.410;2023-05-13T15:47:28;23.00;99.90
68139;DHT22;54940;50.842;4.410;2023-05-13T15:49:54;23.10;99.90